createdAt,value
2018-05-17T00:04:03.222Z,4.72
2018-05-17T00:09:58.186Z,7.93
2018-05-17T00:15:53.172Z,5.49
2018-05-17T00:21:48.184Z,11.9
2018-05-17T00:27:43.204Z,3.11
2018-05-17T00:33:38.214Z,6.39
2018-05-17T00:39:33.188Z,3.87
2018-05-17T00:45:28.208Z,5.5
2018-05-17T00:51:23.223Z,6.3
2018-05-17T00:57:18.201Z,6.16
2018-05-17T01:03:13.259Z,7.31
2018-05-17T01:09:08.206Z,3.7
2018-05-17T01:15:03.258Z,4.28
2018-05-17T01:20:58.246Z,9.96
2018-05-17T01:26:53.223Z,7.5
2018-05-17T01:32:48.241Z,6.48
2018-05-17T01:38:43.248Z,4.9
2018-05-17T01:44:38.223Z,3.36
2018-05-17T01:50:33.247Z,3.52
2018-05-17T01:56:28.246Z,4.68
2018-05-17T02:02:23.261Z,6.33
2018-05-17T02:08:18.224Z,9.29
2018-05-17T02:14:13.272Z,7.44
2018-05-17T02:20:08.347Z,5.47
2018-05-17T02:26:03.286Z,5.15
2018-05-17T02:31:58.243Z,4.32
2018-05-17T02:37:53.304Z,5.84
2018-05-17T02:43:48.300Z,4.24
2018-05-17T02:49:43.314Z,4.69
2018-05-17T02:55:38.276Z,6.82
2018-05-17T03:01:33.284Z,3.69
2018-05-17T03:07:28.295Z,3.56
2018-05-17T03:13:23.277Z,3.68
2018-05-17T03:19:18.282Z,3.11
2018-05-17T03:25:13.301Z,5.61
2018-05-17T03:31:08.284Z,5.16
2018-05-17T03:37:03.284Z,5.41
2018-05-17T03:42:58.283Z,5.57
2018-05-17T03:48:53.272Z,6.15
2018-05-17T03:54:48.320Z,6.86
2018-05-17T04:00:43.285Z,6.22
2018-05-17T04:06:38.323Z,5.45
2018-05-17T04:12:33.323Z,7.82
2018-05-17T04:18:28.318Z,5.52
2018-05-17T04:24:23.328Z,6.37
2018-05-17T04:30:18.335Z,6.6
2018-05-17T04:36:13.361Z,4.7
2018-05-17T04:42:08.323Z,6.03
2018-05-17T04:48:03.347Z,2.91
2018-05-17T04:53:58.345Z,5.38
2018-05-17T04:59:53.321Z,3.21
2018-05-17T05:05:48.357Z,3.58
2018-05-17T05:11:43.385Z,6.31
2018-05-17T05:17:38.339Z,3.97
2018-05-17T05:23:33.339Z,9.1
2018-05-17T05:29:28.330Z,3.88
2018-05-17T05:35:23.392Z,5.34
2018-05-17T05:41:18.391Z,3.75
2018-05-17T05:47:13.366Z,4.91
2018-05-17T05:53:08.414Z,4.78
2018-05-17T05:59:03.552Z,7.5
2018-05-17T06:04:58.355Z,7.17
2018-05-17T06:10:53.381Z,10.02
2018-05-17T06:16:48.407Z,6.97
2018-05-17T06:22:43.364Z,6.41
2018-05-17T06:28:38.399Z,8.45
2018-05-17T06:34:33.363Z,10.56
2018-05-17T06:40:28.397Z,6.59
2018-05-17T06:46:23.411Z,5.02
2018-05-17T06:52:18.393Z,8.9
2018-05-17T06:58:13.411Z,7.28
2018-05-17T07:04:08.463Z,7.71
2018-05-17T07:10:03.437Z,9.77
2018-05-17T07:15:58.396Z,7.57
2018-05-17T07:21:53.445Z,8.33
2018-05-17T07:27:48.400Z,8.07
2018-05-17T07:33:43.426Z,12.06
2018-05-17T07:39:38.434Z,9.7
2018-05-17T07:45:33.407Z,7
2018-05-17T07:51:28.444Z,11.62
2018-05-17T07:57:23.418Z,7.98
2018-05-17T08:03:18.450Z,7.14
2018-05-17T08:09:13.412Z,10.09
2018-05-17T08:15:08.464Z,11.07
2018-05-17T08:21:03.449Z,11.96
2018-05-17T08:26:58.463Z,11.91
2018-05-17T08:32:53.489Z,10.21
2018-05-17T08:38:48.446Z,9.79
2018-05-17T08:44:43.466Z,9.22
2018-05-17T08:50:38.447Z,12.31
2018-05-17T08:56:33.484Z,9.22
2018-05-17T09:02:28.465Z,12.58
2018-05-17T09:08:23.452Z,17.83
2018-05-17T09:14:18.469Z,7.66
2018-05-17T09:20:13.540Z,9.33
2018-05-17T09:26:08.469Z,10.35
2018-05-17T09:32:03.458Z,12.63
2018-05-17T09:37:58.490Z,8.11
2018-05-17T09:43:53.519Z,19.66
2018-05-17T09:49:48.518Z,11.16
2018-05-17T09:55:43.499Z,8.18
2018-05-17T10:01:38.537Z,9.07
2018-05-17T10:07:33.559Z,10.1
2018-05-17T10:13:28.541Z,10.21
2018-05-17T10:19:23.488Z,10.12
2018-05-17T10:25:18.470Z,6.72
2018-05-17T10:31:13.497Z,8.71
2018-05-17T10:37:08.485Z,6.67
2018-05-17T10:43:03.545Z,5.67
2018-05-17T10:48:58.576Z,7.28
2018-05-17T10:54:53.587Z,5.35
2018-05-17T11:00:48.559Z,5.57
2018-05-17T11:06:43.557Z,8.73
2018-05-17T11:12:38.532Z,4.4
2018-05-17T11:18:33.547Z,10.13
2018-05-17T11:24:28.523Z,6.87
2018-05-17T11:30:23.528Z,15.17
2018-05-17T11:36:18.620Z,13.74
2018-05-17T11:42:13.593Z,10.14
2018-05-17T11:48:08.595Z,11.38
2018-05-17T11:54:03.563Z,6.88
2018-05-17T11:59:58.560Z,8.96
2018-05-17T12:05:53.548Z,6.37
2018-05-17T12:11:48.554Z,7.88
2018-05-17T12:17:43.585Z,6.51
2018-05-17T12:23:38.581Z,8.72
2018-05-17T12:29:33.569Z,7.03
2018-05-17T12:35:28.612Z,8.12
2018-05-17T12:41:23.598Z,6.14
2018-05-17T12:47:18.589Z,4.78
2018-05-17T12:53:13.602Z,4.93
2018-05-17T12:59:08.584Z,2.58
2018-05-17T13:05:03.641Z,6.47
2018-05-17T13:10:58.605Z,4.77
2018-05-17T13:16:53.601Z,6.85
2018-05-17T13:22:48.601Z,8.68
2018-05-17T13:28:43.641Z,4.51
2018-05-17T13:34:38.612Z,3.11
2018-05-17T13:40:33.609Z,3.75
2018-05-17T13:46:28.621Z,4.38
2018-05-17T13:52:23.632Z,3.21
2018-05-17T13:58:18.618Z,2
2018-05-17T14:04:13.634Z,2.77
2018-05-17T14:10:08.670Z,4.1
2018-05-17T14:16:03.656Z,1.9
2018-05-17T14:21:58.650Z,3.29
2018-05-17T14:27:53.700Z,5.76
2018-05-17T14:33:48.695Z,2.88
2018-05-17T14:39:43.653Z,2.2
2018-05-17T14:45:38.657Z,2.66
2018-05-17T14:51:33.716Z,5.01
2018-05-17T14:57:28.667Z,4.22
2018-05-17T15:03:23.673Z,4.05
2018-05-17T15:09:18.716Z,1.91
2018-05-17T15:15:13.694Z,3.94
2018-05-17T15:21:08.683Z,3.16
2018-05-17T15:27:03.659Z,3.83
2018-05-17T15:32:58.723Z,7.43
2018-05-17T15:38:53.683Z,6.34
2018-05-17T15:44:48.695Z,4.49
2018-05-17T15:50:43.690Z,3.57
2018-05-17T15:56:38.698Z,9.29
2018-05-17T16:02:33.709Z,3.89
2018-05-17T16:08:28.770Z,5.66
2018-05-17T16:14:23.751Z,2.49
2018-05-17T16:20:18.768Z,3.4
2018-05-17T16:26:13.697Z,2.24
2018-05-17T16:32:08.740Z,2.27
2018-05-17T16:38:03.727Z,8.12
2018-05-17T16:43:58.721Z,3.94
2018-05-17T16:49:53.717Z,4.53
2018-05-17T16:55:48.734Z,5.14
2018-05-17T17:01:43.725Z,3.75
2018-05-17T17:07:38.748Z,2.7
2018-05-17T17:13:33.763Z,5.1
2018-05-17T17:19:28.745Z,4.91
2018-05-17T17:25:23.735Z,3.19
2018-05-17T17:31:18.751Z,5.04
2018-05-17T17:37:13.763Z,4.6
2018-05-17T17:43:08.742Z,5.89
2018-05-17T17:49:03.754Z,7.87
2018-05-17T17:54:58.767Z,6.35
2018-05-17T18:00:53.784Z,6.77
2018-05-17T18:06:48.821Z,7.24
2018-05-17T18:12:43.769Z,4.98
2018-05-17T18:18:38.761Z,9.17
2018-05-17T18:24:33.782Z,10.67
2018-05-17T18:30:28.776Z,7.57
2018-05-17T18:36:23.845Z,7.3
2018-05-17T18:42:18.809Z,10.66
2018-05-17T18:48:13.845Z,10.77
2018-05-17T18:54:08.798Z,7.75
2018-05-17T19:00:03.807Z,9.57
2018-05-17T19:05:58.835Z,8.1
2018-05-17T19:11:53.804Z,10.25
2018-05-17T19:17:48.851Z,8.93
2018-05-17T19:23:43.817Z,10.06
2018-05-17T19:29:38.837Z,11
2018-05-17T19:35:33.804Z,9.66
2018-05-17T19:41:28.808Z,12.37
2018-05-17T19:47:23.828Z,7.77
2018-05-17T19:53:18.826Z,12.41
2018-05-17T19:59:13.817Z,13
2018-05-17T20:05:08.830Z,10.53
2018-05-17T20:11:03.932Z,11.13
2018-05-17T20:16:58.815Z,9.41
2018-05-17T20:22:53.839Z,12.27
2018-05-17T20:28:48.863Z,12.02
2018-05-17T20:34:43.862Z,13.3
2018-05-17T20:40:38.902Z,10.65
2018-05-17T20:46:33.846Z,11.23
2018-05-17T20:52:28.916Z,12.22
2018-05-17T20:58:23.864Z,12.08
2018-05-17T21:04:18.913Z,14.19
2018-05-17T21:10:13.912Z,9.68
2018-05-17T21:16:08.885Z,10.21
2018-05-17T21:22:03.885Z,12.05
2018-05-17T21:27:58.883Z,11.75
2018-05-17T21:33:53.896Z,10.61
2018-05-17T21:39:48.886Z,10.5
2018-05-17T21:45:43.893Z,12.89
2018-05-17T21:51:38.908Z,11.47
2018-05-17T21:57:33.952Z,10.73
2018-05-17T22:03:28.896Z,13.37
2018-05-17T22:09:23.864Z,12.11
2018-05-17T22:15:18.920Z,11.3
2018-05-17T22:21:13.883Z,12.45
2018-05-17T22:27:08.876Z,13.12
2018-05-17T22:33:03.946Z,13.79
2018-05-17T22:38:58.889Z,18.61
2018-05-17T22:44:53.923Z,18.38
2018-05-17T22:50:48.893Z,16.27
2018-05-17T22:56:43.879Z,9.48
2018-05-17T23:02:38.981Z,13.63
2018-05-17T23:08:33.897Z,11.83
2018-05-17T23:14:28.906Z,11.38
2018-05-17T23:20:23.905Z,13.34
2018-05-17T23:26:18.929Z,9.62
2018-05-17T23:32:13.913Z,11.55
2018-05-17T23:38:08.930Z,10.49
2018-05-17T23:44:03.951Z,10.91
2018-05-17T23:49:58.923Z,10.23
2018-05-17T23:55:53.997Z,9.59
